Time;durP1;ratioP1;P1;durP2;ratioP2;P2;SDS_P1;SDS_P2;PMS_P1;PMS_P2;Temp;Humidity;BMP_temperature;BMP_pressure;BME280_temperature;BME280_humidity;BME280_pressure;Samples;Min_cycle;Max_cycle;Signal;HPM_P1;HPM_P2
2023/04/25 00:01:40;;;;;;;19.60;5.70;;;;;;;5.55;96.66;100748.59;5018590;28;20045;-69
2023/04/25 00:04:05;;;;;;;22.02;6.07;;;;;;;5.58;96.65;100750.13;5003444;28;20040;-69
2023/04/25 00:06:32;;;;;;;19.67;5.97;;;;;;;5.54;96.43;100749.56;5003402;28;20033;-69
2023/04/25 00:08:58;;;;;;;32.25;4.97;;;;;;;5.55;96.47;100753.75;4997648;28;20038;-69
2023/04/25 00:11:24;;;;;;;21.23;5.35;;;;;;;5.56;96.88;100754.56;5000376;28;20040;-69
2023/04/25 00:13:52;;;;;;;17.42;5.00;;;;;;;5.53;97.17;100754.81;4986530;28;20455;-69
2023/04/25 00:16:18;;;;;;;20.83;6.05;;;;;;;5.62;97.11;100757.44;5016540;28;20037;-69
2023/04/25 00:18:46;;;;;;;21.95;5.15;;;;;;;5.60;97.01;100761.09;4998305;28;20479;-69
2023/04/25 00:21:11;;;;;;;21.13;6.88;;;;;;;5.59;97.52;100756.88;5010288;28;20092;-69
2023/04/25 00:23:37;;;;;;;20.38;7.00;;;;;;;5.63;97.09;100758.25;5013329;23;20070;-81
2023/04/25 00:26:02;;;;;;;17.10;4.85;;;;;;;5.63;96.85;100764.25;4984772;28;20100;-80
2023/04/25 00:28:28;;;;;;;19.30;5.70;;;;;;;5.71;96.55;100768.75;4967667;28;20044;-77
2023/04/25 00:30:54;;;;;;;18.52;5.70;;;;;;;5.65;96.79;100770.06;4984040;28;20022;-79
2023/04/25 00:33:19;;;;;;;14.77;4.75;;;;;;;5.71;97.40;100767.91;4986890;28;20061;-78
2023/04/25 00:35:45;;;;;;;19.25;5.63;;;;;;;5.68;97.29;100774.16;4970088;28;20030;-79
2023/04/25 00:38:10;;;;;;;23.58;5.38;;;;;;;5.67;97.46;100769.97;4983337;28;20042;-80
2023/04/25 00:40:36;;;;;;;15.18;4.95;;;;;;;5.72;97.59;100767.00;4985972;28;20088;-81
2023/04/25 00:43:01;;;;;;;24.00;6.13;;;;;;;5.72;97.81;100772.16;4983518;28;20122;-79
2023/04/25 00:45:29;;;;;;;16.42;5.35;;;;;;;5.69;97.98;100762.94;4970857;28;20029;-78
2023/04/25 00:47:54;;;;;;;18.83;5.93;;;;;;;5.69;97.98;100767.25;4989090;28;20057;-76
2023/04/25 00:50:20;;;;;;;14.93;5.07;;;;;;;5.75;98.02;100769.34;4999491;28;20415;-80
2023/04/25 00:52:46;;;;;;;20.35;5.80;;;;;;;5.77;97.53;100770.81;4963585;28;20041;-78
2023/04/25 00:55:12;;;;;;;19.20;6.32;;;;;;;5.78;97.56;100759.59;4983782;28;20029;-80
2023/04/25 00:57:38;;;;;;;26.27;5.65;;;;;;;5.66;98.12;100761.41;4967782;28;20026;-80
2023/04/25 01:00:09;;;;;;;25.15;5.95;;;;;;;5.73;98.06;100755.78;4965304;28;20933;-79
2023/04/25 01:02:36;;;;;;;20.17;6.00;;;;;;;5.77;97.85;100767.44;4963050;28;20027;-80
2023/04/25 01:05:02;;;;;;;19.73;5.88;;;;;;;5.69;98.27;100762.94;4967779;28;20038;-80
2023/04/25 01:07:28;;;;;;;26.73;6.25;;;;;;;5.68;97.75;100765.63;4985599;28;20034;-79
2023/04/25 01:09:53;;;;;;;18.48;5.93;;;;;;;5.69;98.10;100767.25;4962121;28;20128;-79
2023/04/25 01:12:19;;;;;;;20.52;4.95;;;;;;;5.80;97.54;100770.59;4971257;28;20034;-80
2023/04/25 01:14:45;;;;;;;23.80;5.70;;;;;;;5.73;97.88;100768.66;4966961;28;20097;-78
2023/04/25 01:17:11;;;;;;;18.45;6.15;;;;;;;5.78;98.41;100769.06;5002760;28;20033;-79
2023/04/25 01:19:37;;;;;;;21.77;5.32;;;;;;;5.88;98.42;100769.97;4983973;28;20034;-79
2023/04/25 01:22:03;;;;;;;32.50;6.55;;;;;;;5.87;98.28;100773.47;4973138;28;20034;-79
2023/04/25 01:24:32;;;;;;;29.33;5.38;;;;;;;5.81;98.02;100771.41;4965329;28;20041;-79
2023/04/25 01:27:00;;;;;;;18.63;5.78;;;;;;;5.89;98.12;100770.75;4986972;28;20116;-79
2023/04/25 01:29:26;;;;;;;18.10;4.97;;;;;;;5.92;96.82;100773.91;4965584;28;20034;-79
2023/04/25 01:31:53;;;;;;;17.15;5.32;;;;;;;5.85;97.77;100765.84;4986578;28;20523;-77
2023/04/25 01:34:18;;;;;;;14.65;4.65;;;;;;;5.95;97.89;100765.97;4970182;28;20093;-77
2023/04/25 01:36:44;;;;;;;19.70;5.40;;;;;;;5.92;97.57;100765.38;4986515;28;20076;-78
2023/04/25 01:39:09;;;;;;;19.08;6.05;;;;;;;5.97;97.91;100773.53;4970474;28;20031;-78
2023/04/25 01:41:36;;;;;;;16.67;4.88;;;;;;;6.00;98.23;100779.25;4968481;28;20544;-79
2023/04/25 01:44:02;;;;;;;13.95;4.68;;;;;;;6.03;98.18;100786.75;4984559;28;20080;-80
2023/04/25 01:46:28;;;;;;;17.40;4.28;;;;;;;6.00;98.24;100778.44;4975424;28;20079;-81
2023/04/25 01:48:54;;;;;;;12.02;4.57;;;;;;;5.96;97.61;100782.22;4969580;28;20420;-79
2023/04/25 01:51:20;;;;;;;22.88;5.35;;;;;;;6.02;97.67;100787.66;4971711;28;20116;-77
2023/04/25 01:53:45;;;;;;;16.48;5.15;;;;;;;6.00;98.01;100788.75;4960300;28;20085;-80
2023/04/25 01:56:12;;;;;;;16.83;5.65;;;;;;;5.96;98.06;100788.19;4970309;28;20037;-80
2023/04/25 01:58:38;;;;;;;17.33;4.53;;;;;;;5.84;98.93;100802.03;4972013;28;20063;-80
2023/04/25 02:01:12;;;;;;;14.48;4.60;;;;;;;5.77;99.53;100798.31;4976143;28;20034;-80
2023/04/25 02:03:44;;;;;;;14.18;5.20;;;;;;;5.88;99.82;100806.00;4984851;28;20049;-80
2023/04/25 02:06:18;;;;;;;16.90;4.55;;;;;;;5.83;99.88;100806.34;4976032;28;20077;-80
2023/04/25 02:08:46;;;;;;;20.52;5.43;;;;;;;5.82;99.96;100802.16;4969749;28;20475;-80
2023/04/25 02:11:12;;;;;;;19.00;5.40;;;;;;;5.78;100.00;100797.38;4973733;28;20019;-79
2023/04/25 02:13:44;;;;;;;18.67;5.75;;;;;;;5.78;100.00;100798.22;4972554;28;20046;-80
2023/04/25 02:16:21;;;;;;;16.77;5.65;;;;;;;5.73;100.00;100794.38;4974496;28;20030;-81
2023/04/25 02:18:47;;;;;;;16.35;4.90;;;;;;;5.80;100.00;100800.63;4981158;28;20037;-78
2023/04/25 02:21:12;;;;;;;16.83;5.18;;;;;;;5.86;99.65;100792.44;4985200;28;20519;-79
2023/04/25 02:23:38;;;;;;;18.10;4.80;;;;;;;5.83;99.32;100795.25;4972804;28;20536;-79
2023/04/25 02:26:03;;;;;;;15.95;4.22;;;;;;;5.67;99.95;100798.25;4971384;28;20491;-80
2023/04/25 02:28:29;;;;;;;22.60;6.10;;;;;;;5.72;100.00;100797.88;4974224;28;20499;-80
2023/04/25 02:30:54;;;;;;;15.25;5.10;;;;;;;5.78;100.00;100803.34;4990379;28;20030;-79
2023/04/25 02:33:20;;;;;;;19.50;4.78;;;;;;;5.76;99.73;100801.81;4974013;28;20049;-80
2023/04/25 02:35:46;;;;;;;22.35;5.22;;;;;;;5.79;99.79;100806.72;4975683;28;20514;-80
2023/04/25 02:38:12;;;;;;;24.58;4.90;;;;;;;5.76;99.79;100799.25;4975411;28;20488;-78
2023/04/25 02:40:40;;;;;;;21.60;5.00;;;;;;;5.90;99.42;100804.09;4974834;28;20030;-79
2023/04/25 02:43:06;;;;;;;19.38;5.00;;;;;;;5.91;99.12;100802.34;5001471;23;20041;-73
2023/04/25 02:45:32;;;;;;;21.08;4.90;;;;;;;5.92;98.97;100802.22;4999458;28;20045;-73
2023/04/25 02:47:57;;;;;;;21.23;5.05;;;;;;;5.74;99.47;100794.22;4973839;28;20045;-73
2023/04/25 02:50:23;;;;;;;14.00;4.68;;;;;;;5.77;99.31;100799.13;4974000;28;20084;-73
2023/04/25 02:52:48;;;;;;;16.20;4.72;;;;;;;5.76;99.09;100802.63;4987594;28;20401;-73
2023/04/25 02:55:18;;;;;;;20.80;6.20;;;;;;;5.67;100.00;100798.25;5007472;28;20044;-73
2023/04/25 02:57:45;;;;;;;23.02;5.13;;;;;;;5.74;99.88;100801.13;5007017;28;20030;-73
2023/04/25 03:00:14;;;;;;;10.65;4.53;;;;;;;5.68;99.75;100799.06;5004117;28;20034;-73
2023/04/25 03:02:40;;;;;;;21.23;5.20;;;;;;;5.64;99.25;100798.50;4991357;28;20041;-73
2023/04/25 03:05:05;;;;;;;14.27;4.82;;;;;;;5.64;99.88;100801.06;5001358;28;20037;-72
2023/04/25 03:07:31;;;;;;;24.55;5.38;;;;;;;5.59;99.45;100798.84;5006192;28;20022;-72
2023/04/25 03:09:57;;;;;;;22.50;5.00;;;;;;;5.51;100.00;100803.81;5007016;28;20038;-72
2023/04/25 03:12:22;;;;;;;16.35;4.35;;;;;;;5.45;100.00;100804.31;4991565;28;20025;-73
2023/04/25 03:14:48;;;;;;;19.60;6.07;;;;;;;5.46;100.00;100799.03;4988894;28;20088;-73
2023/04/25 03:17:14;;;;;;;17.77;4.65;;;;;;;5.42;100.00;100800.19;4984664;28;20073;-73
2023/04/25 03:19:40;;;;;;;15.93;4.88;;;;;;;5.42;100.00;100805.34;5002838;28;20049;-73
2023/04/25 03:22:05;;;;;;;17.15;5.00;;;;;;;5.55;100.00;100809.53;5002448;28;20476;-73
2023/04/25 03:24:31;;;;;;;14.32;4.47;;;;;;;5.57;100.00;100808.44;5009750;28;20133;-72
2023/04/25 03:26:57;;;;;;;16.08;5.15;;;;;;;5.46;100.00;100811.06;5005295;28;20030;-73
2023/04/25 03:29:25;;;;;;;21.65;5.68;;;;;;;5.44;100.00;100813.78;4986804;28;20030;-73
2023/04/25 03:31:51;;;;;;;25.67;5.63;;;;;;;5.36;100.00;100810.97;4989920;28;20512;-73
2023/04/25 03:34:16;;;;;;;20.90;6.40;;;;;;;5.42;100.00;100812.25;5003526;28;20043;-72
2023/04/25 03:36:42;;;;;;;20.13;6.00;;;;;;;5.48;100.00;100811.75;5003056;28;20395;-73
2023/04/25 03:39:08;;;;;;;17.63;5.50;;;;;;;5.51;100.00;100813.28;5000807;28;20045;-73
2023/04/25 03:41:36;;;;;;;27.70;5.75;;;;;;;5.38;100.00;100803.16;5001016;28;20037;-73
2023/04/25 03:44:06;;;;;;;19.98;5.72;;;;;;;5.36;100.00;100810.97;5003661;28;20415;-72
2023/04/25 03:46:32;;;;;;;20.65;6.57;;;;;;;5.31;100.00;100802.81;4982764;28;20044;-73
2023/04/25 03:48:59;;;;;;;20.50;6.40;;;;;;;5.28;100.00;100810.78;5002512;28;20034;-73
2023/04/25 03:51:33;;;;;;;24.67;6.63;;;;;;;5.22;100.00;100809.50;5005595;28;21255;-73
2023/04/25 03:53:58;;;;;;;21.25;6.80;;;;;;;5.14;100.00;100821.31;5004161;28;20042;-73
2023/04/25 03:56:44;;;;;;;19.70;5.30;;;;;;;5.07;100.00;100821.81;4997784;28;20034;-73
2023/04/25 03:59:17;;;;;;;22.75;5.47;;;;;;;5.04;100.00;100826.38;4987619;28;20037;-72
2023/04/25 04:01:44;;;;;;;19.27;5.63;;;;;;;5.02;100.00;100830.81;5001817;28;20026;-73
2023/04/25 04:04:09;;;;;;;17.40;5.30;;;;;;;5.00;100.00;100835.25;4986765;28;20325;-72
2023/04/25 04:06:36;;;;;;;17.55;6.03;;;;;;;4.96;100.00;100836.44;4996921;28;20049;-73
2023/04/25 04:09:10;;;;;;;23.73;7.03;;;;;;;4.92;100.00;100835.03;5001959;28;20038;-73
2023/04/25 04:11:38;;;;;;;19.55;6.43;;;;;;;4.90;100.00;100842.03;5001640;28;20633;-73
2023/04/25 04:14:05;;;;;;;17.23;6.28;;;;;;;4.84;100.00;100841.59;4997101;28;20567;-73
2023/04/25 04:16:31;;;;;;;17.88;5.00;;;;;;;4.82;100.00;100838.31;4994109;28;20026;-73
2023/04/25 04:18:57;;;;;;;16.55;5.95;;;;;;;4.81;100.00;100846.13;4986825;28;20120;-72
2023/04/25 04:21:23;;;;;;;19.15;5.18;;;;;;;4.80;100.00;100845.31;4999254;28;20435;-73
2023/04/25 04:23:49;;;;;;;27.10;6.15;;;;;;;4.80;100.00;100841.91;5000277;28;20038;-73
2023/04/25 04:26:16;;;;;;;28.48;5.97;;;;;;;4.75;100.00;100844.84;4985786;28;20073;-73
2023/04/25 04:28:51;;;;;;;23.45;5.63;;;;;;;4.77;100.00;100848.13;5003178;28;20048;-73
2023/04/25 04:31:34;;;;;;;24.65;7.40;;;;;;;4.85;100.00;100847.53;4989244;28;20496;-72
2023/04/25 04:34:00;;;;;;;27.25;5.80;;;;;;;4.79;100.00;100853.97;5002207;28;20041;-73
2023/04/25 04:36:26;;;;;;;19.08;5.32;;;;;;;4.78;100.00;100851.50;5004256;28;20026;-72
2023/04/25 04:38:53;;;;;;;23.05;6.43;;;;;;;4.78;100.00;100849.75;4988953;28;20463;-73
2023/04/25 04:41:32;;;;;;;19.70;5.68;;;;;;;4.81;100.00;100854.66;4999709;28;20095;-73
2023/04/25 04:44:34;;;;;;;22.30;6.25;;;;;;;4.83;100.00;100857.91;4963214;28;20042;-73
2023/04/25 04:47:23;;;;;;;33.90;5.82;;;;;;;4.82;100.00;100869.16;4991180;28;20034;-73
2023/04/25 04:50:21;;;;;;;25.23;7.32;;;;;;;4.82;100.00;100868.31;4982820;28;20046;-72
2023/04/25 04:53:02;;;;;;;23.00;6.18;;;;;;;4.98;100.00;100868.78;5001015;28;20070;-72
2023/04/25 04:55:36;;;;;;;31.35;7.13;;;;;;;5.01;100.00;100872.84;4998715;28;20046;-72
2023/04/25 04:58:21;;;;;;;27.67;7.95;;;;;;;4.97;100.00;100874.88;4999876;28;20046;-73
2023/04/25 05:00:53;;;;;;;28.58;6.35;;;;;;;5.02;100.00;100877.88;4991316;28;20076;-73
2023/04/25 05:03:32;;;;;;;25.63;6.93;;;;;;;5.08;100.00;100886.88;5000951;28;20658;-72
2023/04/25 05:06:10;;;;;;;19.50;6.40;;;;;;;5.10;100.00;100890.16;4984359;28;20436;-73
2023/04/25 05:08:56;;;;;;;22.00;7.00;;;;;;;5.10;100.00;100897.84;4981735;28;20120;-72
2023/04/25 05:11:47;;;;;;;28.20;7.55;;;;;;;5.20;100.00;100900.56;5002984;28;20054;-72
2023/04/25 05:14:29;;;;;;;21.45;5.60;;;;;;;5.16;100.00;100899.13;4997930;28;20118;-73
2023/04/25 05:17:13;;;;;;;25.05;6.68;;;;;;;5.12;100.00;100897.75;4998301;28;20431;-73
2023/04/25 05:20:15;;;;;;;19.00;5.65;;;;;;;5.20;100.00;100901.38;4966188;28;20039;-72
2023/04/25 05:23:03;;;;;;;27.85;7.28;;;;;;;5.26;100.00;100903.47;4976995;28;20029;-72
2023/04/25 05:25:52;;;;;;;18.73;5.72;;;;;;;5.30;100.00;100909.19;5000240;28;20045;-72
2023/04/25 05:28:26;;;;;;;23.00;5.85;;;;;;;5.38;100.00;100913.72;5001640;28;20052;-72
2023/04/25 05:31:20;;;;;;;21.63;7.03;;;;;;;5.52;100.00;100922.94;4954462;28;20031;-72
2023/04/25 05:34:06;;;;;;;28.48;7.20;;;;;;;5.53;100.00;100916.88;5001011;28;20053;-72
2023/04/25 05:36:48;;;;;;;34.47;6.00;;;;;;;5.56;100.00;100912.31;5001724;28;20129;-72
2023/04/25 05:39:16;;;;;;;28.30;6.70;;;;;;;5.59;99.71;100912.03;4995794;28;20034;-72
2023/04/25 05:42:07;;;;;;;25.00;5.60;;;;;;;5.71;99.37;100919.72;5006043;28;20026;-72
2023/04/25 05:44:48;;;;;;;21.35;4.82;;;;;;;5.88;98.17;100929.53;5003657;28;20085;-72
2023/04/25 05:47:30;;;;;;;24.23;5.53;;;;;;;5.91;97.25;100924.13;5005267;28;20025;-72
2023/04/25 05:50:04;;;;;;;23.13;6.55;;;;;;;5.94;97.17;100925.66;4987531;28;20049;-72
2023/04/25 05:52:48;;;;;;;35.40;6.03;;;;;;;5.90;96.17;100930.22;5004172;28;20149;-72
2023/04/25 05:55:23;;;;;;;20.38;5.07;;;;;;;5.88;96.16;100926.94;5004420;28;20152;-72
2023/04/25 05:57:49;;;;;;;15.27;4.55;;;;;;;6.00;95.10;100927.75;5003415;28;20598;-72
2023/04/25 06:00:16;;;;;;;26.98;5.68;;;;;;;6.14;95.84;100937.78;5005107;28;20356;-72
2023/04/25 06:02:44;;;;;;;22.60;5.07;;;;;;;6.12;94.77;100937.09;4980071;28;20026;-72
2023/04/25 06:05:12;;;;;;;28.05;5.30;;;;;;;6.15;94.98;100941.97;5008117;28;20030;-72
2023/04/25 06:07:37;;;;;;;20.38;5.38;;;;;;;6.11;94.55;100935.44;5001856;28;20092;-72
2023/04/25 06:10:06;;;;;;;21.35;4.78;;;;;;;6.34;94.42;100946.44;5000956;28;20030;-72
2023/04/25 06:12:32;;;;;;;21.17;4.85;;;;;;;6.48;93.69;100950.50;5002376;28;20041;-72
2023/04/25 06:14:59;;;;;;;21.33;4.97;;;;;;;6.58;93.16;100953.13;5004467;28;20034;-72
2023/04/25 06:17:24;;;;;;;17.80;4.63;;;;;;;6.57;92.58;100946.31;5020933;28;20033;-72
2023/04/25 06:19:51;;;;;;;17.85;4.07;;;;;;;6.44;91.15;100959.38;4991847;28;20041;-73
2023/04/25 06:22:16;;;;;;;23.65;4.32;;;;;;;6.49;90.83;100952.09;5005301;28;20085;-72
2023/04/25 06:24:42;;;;;;;19.52;4.20;;;;;;;6.52;90.06;100956.22;5005916;28;20041;-73
2023/04/25 06:27:07;;;;;;;21.50;4.97;;;;;;;6.49;90.71;100959.03;4990784;28;20032;-72
2023/04/25 06:29:33;;;;;;;19.23;4.13;;;;;;;6.55;90.65;100956.75;4990199;28;20480;-72
2023/04/25 06:31:59;;;;;;;17.95;4.43;;;;;;;6.54;89.53;100964.63;5004447;28;20029;-72
2023/04/25 06:34:24;;;;;;;24.42;5.43;;;;;;;6.60;90.18;100964.13;5003882;28;20035;-72
2023/04/25 06:36:50;;;;;;;16.90;4.18;;;;;;;6.77;89.63;100968.69;4988905;28;20492;-72
2023/04/25 06:39:16;;;;;;;20.90;4.60;;;;;;;6.85;90.44;100967.25;4998080;28;20391;-72
2023/04/25 06:41:41;;;;;;;64.95;21.08;;;;;;;6.92;88.16;100970.94;5004531;28;20026;-72
2023/04/25 06:44:15;;;;;;;;;;;;;;;6.96;87.34;100978.28;5002518;28;20039;-73
2023/04/25 06:46:50;;;;;;;20.20;4.13;;;;;;;7.06;87.74;100977.53;5019223;23;19968;-68
2023/04/25 06:49:15;;;;;;;14.43;4.10;;;;;;;7.11;86.61;100978.78;4994076;28;20061;-69
2023/04/25 06:51:41;;;;;;;20.45;4.68;;;;;;;7.30;86.26;100985.78;5001056;28;20041;-69
2023/04/25 06:54:07;;;;;;;24.52;6.90;;;;;;;7.67;83.89;100987.00;5006556;28;20490;-69
2023/04/25 06:56:51;;;;;;;27.55;4.32;;;;;;;7.78;81.83;100979.94;5007639;28;20037;-69
2023/04/25 06:59:17;;;;;;;23.70;4.80;;;;;;;7.95;80.79;100980.25;5007701;28;20095;-69
2023/04/25 07:01:45;;;;;;;14.25;3.67;;;;;;;8.17;79.88;100984.31;5001370;28;20453;-69
2023/04/25 07:04:15;;;;;;;24.77;4.40;;;;;;;8.61;77.86;100982.16;5022557;28;20495;-68
2023/04/25 07:06:47;;;;;;;21.38;5.25;;;;;;;9.37;75.02;100983.81;4984484;28;20095;-70
2023/04/25 07:09:14;;;;;;;17.45;4.20;;;;;;;10.19;70.48;100982.09;5005863;28;20436;-69
2023/04/25 07:11:44;;;;;;;17.63;5.00;;;;;;;10.70;69.26;100983.16;4993309;28;20415;-70
2023/04/25 07:14:10;;;;;;;17.85;4.13;;;;;;;11.23;67.24;100983.13;5004241;28;20034;-70
2023/04/25 07:16:35;;;;;;;13.40;3.53;;;;;;;11.46;63.66;100981.56;4989305;28;20025;-70
2023/04/25 07:19:01;;;;;;;15.63;3.15;;;;;;;11.66;63.77;100981.31;5005070;28;20042;-69
2023/04/25 07:21:27;;;;;;;15.55;3.65;;;;;;;12.12;62.02;100976.53;5007180;28;20056;-69
2023/04/25 07:23:53;;;;;;;17.20;3.28;;;;;;;12.20;59.95;100984.34;5003353;28;20037;-70
2023/04/25 07:26:23;;;;;;;9.02;2.58;;;;;;;11.81;57.98;100979.72;5005558;28;20037;-70
2023/04/25 07:29:21;;;;;;;13.75;2.58;;;;;;;12.05;58.93;100983.34;4999748;28;20041;-69
2023/04/25 07:31:46;;;;;;;12.82;2.75;;;;;;;11.84;60.05;100992.38;4989947;28;20084;-70
2023/04/25 07:34:12;;;;;;;10.77;2.63;;;;;;;10.74;60.83;100995.78;5008919;28;20041;-70
2023/04/25 07:36:38;;;;;;;25.77;2.97;;;;;;;10.78;62.36;100994.56;4990451;28;20108;-70
2023/04/25 07:39:04;;;;;;;16.00;3.17;;;;;;;10.92;61.88;101001.75;4992844;28;20052;-70
2023/04/25 07:41:30;;;;;;;21.20;3.08;;;;;;;11.74;59.41;100996.91;5007419;28;20057;-70
2023/04/25 07:43:55;;;;;;;12.60;3.15;;;;;;;11.70;59.69;101003.41;5004807;28;20507;-69
2023/04/25 07:46:21;;;;;;;21.35;4.55;;;;;;;11.32;60.54;100999.53;5008323;28;20025;-69
2023/04/25 07:48:46;;;;;;;13.10;3.13;;;;;;;10.97;60.82;101007.31;5017985;28;20053;-70
2023/04/25 07:51:12;;;;;;;21.17;3.42;;;;;;;10.98;62.62;101005.50;4992391;28;20683;-70
2023/04/25 07:53:39;;;;;;;21.08;4.07;;;;;;;12.06;60.17;101003.19;5000693;28;20033;-70
2023/04/25 07:56:09;;;;;;;17.35;2.90;;;;;;;12.76;56.77;101007.88;5003460;28;20094;-69
2023/04/25 07:58:37;;;;;;;22.13;4.30;;;;;;;12.77;56.32;101011.28;5005690;28;20040;-68
2023/04/25 08:01:06;;;;;;;9.88;3.17;;;;;;;12.40;56.28;101010.84;5005924;28;20052;-70
2023/04/25 08:03:34;;;;;;;16.60;2.35;;;;;;;11.86;55.82;101026.81;5021741;28;20038;-70
2023/04/25 08:06:02;;;;;;;7.07;2.15;;;;;;;11.85;57.16;101027.00;5003175;28;20168;-68
2023/04/25 08:08:30;;;;;;;13.77;2.45;;;;;;;11.99;54.97;101030.78;5020606;28;20044;-71
2023/04/25 08:10:56;;;;;;;19.95;4.05;;;;;;;12.12;53.01;101035.53;4999755;28;20404;-70
2023/04/25 08:13:21;;;;;;;18.63;2.83;;;;;;;11.94;54.92;101031.28;5003097;28;20036;-70
2023/04/25 08:15:47;;;;;;;13.23;3.03;;;;;;;11.59;54.79;101034.88;5007874;28;20029;-70
2023/04/25 08:18:13;;;;;;;14.63;2.25;;;;;;;11.21;55.50;101049.94;4997396;28;20578;-70
2023/04/25 08:20:38;;;;;;;12.95;2.33;;;;;;;10.63;57.05;101051.34;5021274;28;20033;-69
2023/04/25 08:23:06;;;;;;;9.90;3.03;;;;;;;10.70;57.98;101054.97;4982842;28;20029;-68
2023/04/25 08:25:50;;;;;;;8.40;3.05;;;;;;;10.70;57.97;101055.78;5002135;28;20057;-69
2023/04/25 08:28:18;;;;;;;12.65;2.38;;;;;;;10.57;59.61;101059.69;5002136;28;20522;-69
2023/04/25 08:30:45;;;;;;;12.85;2.35;;;;;;;10.05;58.62;101055.94;4998402;28;20096;-68
2023/04/25 08:33:13;;;;;;;7.32;2.13;;;;;;;10.12;59.50;101063.97;4999184;28;20040;-68
2023/04/25 08:36:10;;;;;;;12.65;2.65;;;;;;;11.35;54.49;101062.34;5005375;28;20522;-69
2023/04/25 08:38:36;;;;;;;12.88;2.35;;;;;;;10.88;56.90;101065.28;5003312;28;20033;-70
2023/04/25 08:41:10;;;;;;;22.00;5.70;;;;;;;10.91;58.73;101063.22;5006132;28;20038;-69
2023/04/25 08:43:41;;;;;;;17.92;7.00;;;;;;;10.45;60.66;101075.50;5018242;28;20084;-69
2023/04/25 08:46:08;;;;;;;12.05;3.13;;;;;;;10.05;61.97;101083.66;5016818;28;20064;-68
2023/04/25 08:48:42;;;;;;;25.90;8.23;;;;;;;9.93;61.15;101085.63;4996504;28;20038;-69
2023/04/25 08:51:09;;;;;;;11.98;2.92;;;;;;;9.79;63.13;101091.28;4985309;28;21262;-68
2023/04/25 08:53:35;;;;;;;17.88;5.90;;;;;;;9.66;63.90;101083.84;4972029;28;20095;-69
2023/04/25 08:56:03;;;;;;;13.40;3.33;;;;;;;9.81;64.72;101094.53;5005550;28;20578;-69
2023/04/25 08:58:34;;;;;;;13.07;3.00;;;;;;;10.80;62.65;101101.56;4987857;28;20034;-69
2023/04/25 09:00:59;;;;;;;14.52;2.63;;;;;;;12.15;56.64;101093.22;4980405;28;20514;-69
2023/04/25 09:03:27;;;;;;;17.02;2.78;;;;;;;13.02;54.35;101085.75;4980880;28;20549;-70
2023/04/25 09:05:55;;;;;;;16.42;4.70;;;;;;;13.73;50.34;101085.09;4986658;28;20041;-69
2023/04/25 09:08:20;;;;;;;12.60;2.70;;;;;;;13.33;48.71;101092.06;4979020;28;20061;-69
2023/04/25 09:10:46;;;;;;;6.55;1.60;;;;;;;12.98;48.01;101099.28;4999654;28;20535;-70
2023/04/25 09:13:17;;;;;;;10.48;2.17;;;;;;;13.17;45.67;101095.50;4983265;28;20087;-70
2023/04/25 09:16:02;;;;;;;8.02;1.60;;;;;;;12.29;47.60;101099.56;5015001;28;20029;-70
2023/04/25 09:18:43;;;;;;;6.95;1.70;;;;;;;11.72;51.50;101117.56;4997460;28;20032;-69
2023/04/25 09:21:11;;;;;;;6.53;1.98;;;;;;;11.32;55.04;101121.53;5000573;28;20243;-69
2023/04/25 09:23:55;;;;;;;12.25;2.03;;;;;;;10.92;58.07;101128.88;5000052;28;20034;-70
2023/04/25 09:26:21;;;;;;;9.80;2.00;;;;;;;10.56;59.34;101131.50;5014352;28;20040;-70
2023/04/25 09:28:47;;;;;;;10.07;2.85;;;;;;;10.21;61.32;101137.41;4995461;28;20072;-70
2023/04/25 09:31:25;;;;;;;11.13;1.90;;;;;;;9.79;59.09;101138.69;5000984;28;20037;-69
2023/04/25 09:34:00;;;;;;;10.75;1.55;;;;;;;9.79;61.30;101143.06;5012593;28;21044;-69
2023/04/25 09:36:27;;;;;;;11.27;2.67;;;;;;;9.78;61.23;101137.09;5017503;28;20030;-69
2023/04/25 09:39:00;;;;;;;7.38;1.83;;;;;;;11.13;59.80;101141.53;5002512;28;20029;-70
2023/04/25 09:41:28;;;;;;;14.82;2.00;;;;;;;11.71;56.33;101134.09;5002206;28;20033;-70
2023/04/25 09:43:58;;;;;;;5.93;1.50;;;;;;;11.67;54.91;101143.97;5004410;28;20045;-70
2023/04/25 09:46:34;;;;;;;16.48;2.13;;;;;;;11.72;55.42;101152.13;4985525;28;20037;-69
2023/04/25 09:49:06;;;;;;;7.00;1.40;;;;;;;11.61;56.12;101155.00;4990259;28;20136;-70
2023/04/25 09:51:38;;;;;;;10.85;1.90;;;;;;;11.10;56.96;101158.22;5021685;28;20026;-70
2023/04/25 09:54:06;;;;;;;7.40;1.45;;;;;;;10.84;55.13;101159.97;5005702;28;20060;-70
2023/04/25 09:56:37;;;;;;;7.82;1.58;;;;;;;10.48;54.26;101167.72;5009478;28;20593;-69
2023/04/25 09:59:06;;;;;;;12.27;1.55;;;;;;;10.36;54.33;101174.91;5000503;28;20976;-70
2023/04/25 10:01:34;;;;;;;14.82;1.63;;;;;;;10.23;56.80;101174.41;5013424;28;20379;-69
2023/04/25 10:04:10;;;;;;;10.50;1.50;;;;;;;10.27;55.54;101173.94;4999925;28;20041;-70
2023/04/25 10:07:07;;;;;;;10.80;1.90;;;;;;;10.27;56.18;101176.53;5004727;28;20037;-69
2023/04/25 10:09:35;;;;;;;7.32;1.73;;;;;;;10.52;56.14;101184.59;5018323;28;20045;-69
2023/04/25 10:12:03;;;;;;;8.40;2.05;;;;;;;10.38;53.93;101187.69;5021043;28;20041;-69
2023/04/25 10:14:31;;;;;;;8.55;1.42;;;;;;;10.72;56.23;101187.91;4986068;28;20128;-69
2023/04/25 10:16:57;;;;;;;8.40;1.90;;;;;;;10.93;55.59;101195.38;5004308;28;20091;-70
2023/04/25 10:19:24;;;;;;;7.95;1.30;;;;;;;10.90;54.53;101186.09;5018886;28;20034;-70
2023/04/25 10:22:06;;;;;;;15.55;3.33;;;;;;;10.82;54.82;101196.41;5002739;28;20514;-70
2023/04/25 10:24:32;;;;;;;10.90;1.83;;;;;;;10.55;54.63;101194.69;5017742;28;20714;-70
2023/04/25 10:26:58;;;;;;;10.52;2.97;;;;;;;10.48;55.89;101198.84;5022021;28;20041;-68
2023/04/25 10:29:25;;;;;;;8.02;1.50;;;;;;;10.66;57.00;101196.25;5018925;28;20053;-70
2023/04/25 10:31:50;;;;;;;11.75;2.40;;;;;;;10.75;57.42;101186.78;5001341;28;20128;-69
2023/04/25 10:34:17;;;;;;;11.43;1.83;;;;;;;10.53;54.95;101194.03;5018457;28;20119;-69
2023/04/25 10:36:48;;;;;;;8.70;2.72;;;;;;;10.83;53.01;101187.69;5005692;28;20398;-69
2023/04/25 10:39:22;;;;;;;11.18;2.00;;;;;;;11.25;53.23;101186.25;5022226;28;20045;-69
2023/04/25 10:41:52;;;;;;;9.48;1.40;;;;;;;11.82;51.86;101184.00;5020035;28;20399;-69
2023/04/25 10:44:18;;;;;;;4.15;1.55;;;;;;;12.24;50.67;101187.63;4983921;28;20042;-70
2023/04/25 10:46:45;;;;;;;4.57;1.30;;;;;;;12.59;48.02;101170.97;5006362;28;20037;-70
2023/04/25 10:49:27;;;;;;;7.38;1.60;;;;;;;12.59;48.40;101175.38;5000173;28;20136;-69
2023/04/25 10:52:11;;;;;;;12.73;1.40;;;;;;;12.42;50.22;101172.72;5021386;28;20037;-70
2023/04/25 10:55:00;;;;;;;3.50;1.55;;;;;;;12.57;47.80;101175.53;5015527;28;20041;-69
2023/04/25 10:57:49;;;;;;;8.50;1.52;;;;;;;12.78;49.93;101172.47;5019389;28;20474;-70
2023/04/25 11:00:17;;;;;;;8.43;1.45;;;;;;;13.07;49.49;101170.34;4998936;28;20114;-69
2023/04/25 11:02:57;;;;;;;8.45;1.77;;;;;;;12.78;48.61;101184.66;5000386;28;20479;-70
2023/04/25 11:05:31;;;;;;;6.78;1.73;;;;;;;12.78;48.33;101179.47;4983636;28;20450;-69
2023/04/25 11:07:58;;;;;;;7.28;1.90;;;;;;;13.03;49.61;101178.50;5016424;28;20041;-70
2023/04/25 11:10:27;;;;;;;10.13;1.73;;;;;;;12.75;46.24;101174.56;5004463;28;20495;-70
2023/04/25 11:12:53;;;;;;;8.88;1.55;;;;;;;12.82;46.36;101178.16;5022780;28;20086;-70
2023/04/25 11:15:18;;;;;;;12.15;1.40;;;;;;;12.78;48.18;101172.47;5005949;28;20037;-70
2023/04/25 11:17:46;;;;;;;7.60;2.42;;;;;;;12.40;47.63;101174.66;5000355;28;20045;-70
2023/04/25 11:20:13;;;;;;;7.88;1.75;;;;;;;12.30;48.26;101181.81;5003151;28;20026;-70
2023/04/25 11:22:42;;;;;;;6.07;1.75;;;;;;;12.04;47.85;101181.88;5002173;28;20132;-71
2023/04/25 11:25:09;;;;;;;7.25;1.80;;;;;;;11.76;48.28;101189.81;5019658;28;20046;-69
2023/04/25 11:27:53;;;;;;;7.68;2.35;;;;;;;11.44;49.26;101200.81;4999686;28;20037;-71
2023/04/25 11:30:20;;;;;;;10.23;1.50;;;;;;;11.04;50.17;101200.34;5018535;28;20049;-70
2023/04/25 11:32:46;;;;;;;9.68;2.30;;;;;;;10.88;52.32;101197.59;5015073;28;20029;-70
2023/04/25 11:35:11;;;;;;;6.68;1.80;;;;;;;10.82;55.55;101211.19;5006463;28;20033;-70